Log in Register

Login to your account

Username *
Password *
Remember Me

Create an account

Fields marked with an asterisk (*) are required.
Name *
Username *
Password *
Verify password *
Email *
Verify email *

Nous contacter

 Téléphone : +33 (0)4 79 54 41 81

Coordonnées détaillées et accès : cliquez ici

 
LFLB °C
    Ferienhaus Ostsee
[source: ADDS]
METAR
LFLB 092330Z AUTO 34012KT 310V010 9999 BKN032 OVC042 07/01 Q1022 =
TAF LFLB 091700Z 0918/1018 34010KT 9999 OVC035 TEMPO 0918/1002 VRB12G25KT 3000 SHRA SCT025TCU OVC030 BECMG 1003/1006 BKN020
TAF
TAF LFLB 091700Z 0918/1018 34010KT 9999 OVC035 TEMPO 0918/1002 VRB12G25KT 3000 SHRA SCT025TCU OVC030 BECMG 1003/1006 BKN020 =
SR / SS: 07:05 / 15:52 UTC (Lever/Coucher du soleil le 2019-12-10)
JSN Boot template designed by JoomlaShine.com